createdAt,value
2022-12-20T00:00:12.123Z,10.44
2022-12-20T00:02:58.795Z,10.48
2022-12-20T00:05:45.479Z,10.49
2022-12-20T00:08:32.323Z,10.53
2022-12-20T00:11:18.972Z,10.53
2022-12-20T00:14:05.598Z,10.55
2022-12-20T00:16:52.303Z,10.61
2022-12-20T00:19:39.055Z,10.66
2022-12-20T00:22:25.672Z,10.65
2022-12-20T00:25:12.507Z,10.66
2022-12-20T00:27:59.104Z,10.66
2022-12-20T00:30:45.669Z,10.68
2022-12-20T00:33:32.768Z,10.63
2022-12-20T00:36:19.650Z,10.60
2022-12-20T00:39:06.280Z,10.58
2022-12-20T00:41:52.898Z,10.52
2022-12-20T00:44:39.530Z,10.54
2022-12-20T00:47:26.117Z,10.51
2022-12-20T00:50:13.603Z,10.47
2022-12-20T00:53:00.308Z,10.56
2022-12-20T00:55:46.967Z,10.64
2022-12-20T00:58:34.352Z,10.61
2022-12-20T01:01:22.869Z,10.76
2022-12-20T01:04:09.598Z,10.77
2022-12-20T01:06:56.219Z,10.77
2022-12-20T01:09:42.828Z,10.73
2022-12-20T01:12:29.462Z,10.75
2022-12-20T01:15:16.258Z,10.68
2022-12-20T01:18:02.969Z,10.63
2022-12-20T01:20:49.555Z,10.60
2022-12-20T01:23:36.317Z,10.58
2022-12-20T01:26:24.350Z,10.63
2022-12-20T01:29:10.987Z,10.61
2022-12-20T01:31:57.665Z,10.60
2022-12-20T01:34:44.344Z,10.61
2022-12-20T01:37:31.223Z,10.66
2022-12-20T01:40:17.945Z,10.64
2022-12-20T01:43:04.622Z,10.60
2022-12-20T01:45:51.358Z,10.68
2022-12-20T01:48:38.508Z,10.64
2022-12-20T01:51:25.796Z,10.64
2022-12-20T01:54:15.860Z,10.78
2022-12-20T01:57:04.823Z,10.86
2022-12-20T01:59:52.441Z,10.84
2022-12-20T02:02:40.196Z,10.88
2022-12-20T02:05:26.890Z,10.92
2022-12-20T02:08:16.364Z,10.99
2022-12-20T02:11:14.983Z,10.99
2022-12-20T02:14:11.916Z,10.98
2022-12-20T02:17:21.754Z,10.88
2022-12-20T02:20:08.512Z,10.75
2022-12-20T02:22:58.124Z,10.59
2022-12-20T02:25:47.519Z,10.49
2022-12-20T02:28:45.430Z,10.41
2022-12-20T02:31:42.619Z,10.32
2022-12-20T02:34:30.958Z,10.23
2022-12-20T02:37:17.567Z,10.17
2022-12-20T02:40:05.211Z,10.12
2022-12-20T02:42:53.932Z,10.08
2022-12-20T02:45:40.533Z,10.04
2022-12-20T02:48:29.597Z,10.00
2022-12-20T02:51:17.580Z,9.95
2022-12-20T02:54:04.488Z,9.92
2022-12-20T02:56:55.809Z,9.54
2022-12-20T02:59:49.858Z,9.90
2022-12-20T03:03:00.675Z,9.89
2022-12-20T03:05:48.159Z,9.84
2022-12-20T03:08:34.777Z,9.83
2022-12-20T03:11:21.387Z,9.82
2022-12-20T03:14:08.108Z,9.81
2022-12-20T03:16:54.844Z,9.79
2022-12-20T03:19:41.462Z,9.75
2022-12-20T03:22:28.330Z,9.72
2022-12-20T03:25:14.950Z,9.72
2022-12-20T03:28:01.520Z,9.70
2022-12-20T03:30:48.276Z,9.70
2022-12-20T03:33:34.902Z,9.68
2022-12-20T03:36:23.862Z,9.69
2022-12-20T03:39:10.501Z,9.67
2022-12-20T03:41:57.109Z,9.67
2022-12-20T03:44:43.768Z,9.66
2022-12-20T03:47:30.482Z,9.66
2022-12-20T03:50:17.122Z,9.67
2022-12-20T03:53:03.787Z,9.68
2022-12-20T03:55:50.448Z,9.68
2022-12-20T03:58:37.159Z,9.69
2022-12-20T04:01:25.418Z,9.71
2022-12-20T04:04:13.552Z,9.72
2022-12-20T04:07:00.156Z,9.71
2022-12-20T04:09:46.858Z,9.71
2022-12-20T04:12:33.485Z,9.71
2022-12-20T04:15:20.141Z,9.71
2022-12-20T04:18:06.723Z,9.72
2022-12-20T04:20:53.908Z,9.74
2022-12-20T04:23:41.293Z,9.73
2022-12-20T04:26:28.101Z,9.72
2022-12-20T04:29:15.034Z,9.71
2022-12-20T04:32:01.748Z,9.70
2022-12-20T04:34:48.302Z,9.72
2022-12-20T04:37:34.904Z,9.72
2022-12-20T04:40:21.505Z,9.70
2022-12-20T04:43:08.132Z,9.71
2022-12-20T04:45:57.924Z,9.67
2022-12-20T04:49:00.563Z,9.68
2022-12-20T04:51:47.244Z,9.66
2022-12-20T04:54:33.829Z,9.64
2022-12-20T04:57:20.461Z,9.67
2022-12-20T05:00:07.365Z,9.65
2022-12-20T05:02:54.092Z,9.69
2022-12-20T05:05:40.820Z,9.48
2022-12-20T05:08:27.449Z,9.73
2022-12-20T05:11:14.148Z,9.74
2022-12-20T05:14:00.741Z,9.77
2022-12-20T05:16:47.341Z,9.79
2022-12-20T05:19:33.933Z,9.80
2022-12-20T05:22:39.028Z,9.80
2022-12-20T05:25:44.247Z,9.82
2022-12-20T05:28:31.612Z,9.84
2022-12-20T05:31:18.677Z,9.81
2022-12-20T05:34:05.269Z,9.81
2022-12-20T05:36:51.848Z,9.80
2022-12-20T05:39:38.827Z,9.79
2022-12-20T05:42:25.493Z,9.79
2022-12-20T05:45:12.116Z,9.79
2022-12-20T05:47:59.145Z,9.79
2022-12-20T05:50:46.429Z,9.78
2022-12-20T05:53:33.113Z,9.78
2022-12-20T05:56:19.708Z,9.76
2022-12-20T05:59:06.318Z,9.76
2022-12-20T06:01:52.975Z,9.78
2022-12-20T06:04:39.818Z,9.79
2022-12-20T06:07:28.926Z,9.79
2022-12-20T06:10:15.634Z,9.81
2022-12-20T06:13:02.873Z,9.81
2022-12-20T06:15:49.478Z,9.83
2022-12-20T06:18:36.138Z,9.82
2022-12-20T06:21:23.205Z,9.82
2022-12-20T06:24:09.903Z,9.81
2022-12-20T06:26:56.718Z,9.80
2022-12-20T06:29:49.307Z,9.81
2022-12-20T06:32:35.928Z,9.81
2022-12-20T06:35:22.507Z,9.81
2022-12-20T06:38:09.064Z,9.83
2022-12-20T06:40:55.724Z,9.82
2022-12-20T06:43:42.399Z,9.79
2022-12-20T06:46:30.326Z,9.80
2022-12-20T06:49:16.997Z,9.79
2022-12-20T06:52:03.637Z,9.75
2022-12-20T06:54:50.285Z,9.77
2022-12-20T06:57:36.886Z,9.77
2022-12-20T07:00:24.000Z,9.76
2022-12-20T07:03:10.911Z,9.75
2022-12-20T07:05:57.740Z,9.75
2022-12-20T07:08:44.556Z,9.72
2022-12-20T07:11:31.237Z,9.72
2022-12-20T07:14:17.833Z,9.70
2022-12-20T07:17:05.788Z,9.66
2022-12-20T07:19:52.468Z,9.62
2022-12-20T07:22:39.059Z,9.60
2022-12-20T07:25:25.782Z,9.59
2022-12-20T07:28:12.618Z,9.58
2022-12-20T07:31:03.455Z,9.61
2022-12-20T07:33:50.243Z,9.62
2022-12-20T07:36:36.871Z,9.66
2022-12-20T07:39:23.672Z,9.69
2022-12-20T07:42:11.647Z,9.71
2022-12-20T07:44:58.422Z,9.73
2022-12-20T07:47:45.029Z,9.75
2022-12-20T07:50:32.516Z,9.75
2022-12-20T07:53:20.146Z,9.77
2022-12-20T07:56:07.786Z,9.77
2022-12-20T07:58:58.393Z,9.78
2022-12-20T08:01:45.445Z,9.79
2022-12-20T08:04:33.542Z,9.78
2022-12-20T08:07:20.246Z,9.79
2022-12-20T08:10:08.280Z,9.80
2022-12-20T08:12:55.337Z,9.79
2022-12-20T08:15:42.023Z,9.82
2022-12-20T08:18:28.644Z,9.83
2022-12-20T08:21:15.605Z,9.85
2022-12-20T08:24:02.316Z,9.88
2022-12-20T08:26:48.972Z,9.88
2022-12-20T08:29:35.603Z,9.92
2022-12-20T08:32:22.220Z,9.92
2022-12-20T08:35:08.875Z,9.94
2022-12-20T08:37:55.515Z,9.97
2022-12-20T08:40:42.104Z,9.98
2022-12-20T08:43:28.746Z,10.01
2022-12-20T08:46:15.391Z,10.02
2022-12-20T08:49:02.057Z,10.05
2022-12-20T08:51:48.823Z,10.10
2022-12-20T08:54:35.525Z,10.12
2022-12-20T08:57:22.135Z,10.14
2022-12-20T09:00:09.087Z,10.15
2022-12-20T09:02:55.827Z,10.13
2022-12-20T09:05:47.130Z,10.13
2022-12-20T09:08:34.473Z,10.10
2022-12-20T09:11:25.643Z,10.12
2022-12-20T09:14:12.320Z,10.06
2022-12-20T09:16:58.894Z,10.04
2022-12-20T09:19:45.476Z,10.04
2022-12-20T09:22:32.089Z,10.08
2022-12-20T09:25:18.725Z,10.09
2022-12-20T09:28:05.908Z,10.10
2022-12-20T09:30:52.572Z,10.11
2022-12-20T09:33:39.404Z,10.13
2022-12-20T09:36:26.954Z,10.14
2022-12-20T09:39:13.605Z,10.14
2022-12-20T09:42:00.478Z,10.21
2022-12-20T09:44:47.147Z,10.30
2022-12-20T09:47:35.743Z,10.44
2022-12-20T09:50:28.690Z,10.58
2022-12-20T09:53:33.990Z,10.69
2022-12-20T09:56:26.496Z,10.82
2022-12-20T09:59:14.882Z,10.90
2022-12-20T10:02:19.492Z,10.93
2022-12-20T10:05:20.362Z,10.99
2022-12-20T10:08:15.536Z,11.02
2022-12-20T10:11:18.572Z,11.05
2022-12-20T10:14:28.257Z,11.05
2022-12-20T10:17:20.893Z,11.07
2022-12-20T10:20:16.060Z,11.08
2022-12-20T10:23:15.220Z,11.03
2022-12-20T10:26:01.892Z,11.00
2022-12-20T10:28:53.864Z,10.95
2022-12-20T10:31:41.446Z,10.89
2022-12-20T10:34:34.916Z,10.84
2022-12-20T10:37:24.149Z,10.79
2022-12-20T10:40:39.349Z,10.69
2022-12-20T10:43:40.082Z,10.68
2022-12-20T10:46:38.570Z,10.66
2022-12-20T10:49:40.752Z,10.69
2022-12-20T10:52:27.366Z,10.73
2022-12-20T10:55:37.231Z,10.75
2022-12-20T10:58:26.950Z,10.79
2022-12-20T11:01:15.292Z,10.79
2022-12-20T11:04:01.919Z,10.79
2022-12-20T11:06:48.628Z,10.79
2022-12-20T11:09:36.296Z,10.84
2022-12-20T11:12:23.381Z,10.86
2022-12-20T11:15:11.600Z,10.90
2022-12-20T11:18:01.887Z,10.94
2022-12-20T11:20:55.397Z,11.03
2022-12-20T11:23:45.033Z,11.16
2022-12-20T11:26:34.421Z,11.25
2022-12-20T11:29:30.230Z,11.14
2022-12-20T11:32:33.859Z,11.38
2022-12-20T11:35:40.340Z,11.46
2022-12-20T11:38:45.890Z,11.55
2022-12-20T11:41:45.833Z,11.58
2022-12-20T11:44:32.405Z,11.64
2022-12-20T11:47:29.381Z,11.68
2022-12-20T11:50:41.186Z,11.67
2022-12-20T11:53:53.917Z,11.73
2022-12-20T11:56:44.714Z,11.75
2022-12-20T11:59:38.676Z,11.76
2022-12-20T12:02:58.545Z,11.76
2022-12-20T12:05:54.388Z,11.75
2022-12-20T12:08:44.941Z,11.77
2022-12-20T12:12:05.064Z,11.71
2022-12-20T12:14:58.449Z,11.67
2022-12-20T12:17:48.394Z,11.68
2022-12-20T12:20:53.141Z,11.66
2022-12-20T12:23:57.895Z,11.67
2022-12-20T12:26:44.518Z,11.62
2022-12-20T12:29:33.155Z,11.60
2022-12-20T12:32:32.363Z,11.59
2022-12-20T12:35:30.966Z,11.62
2022-12-20T12:38:26.831Z,11.61
2022-12-20T12:41:37.035Z,11.60
2022-12-20T12:44:26.971Z,11.56
2022-12-20T12:47:33.838Z,11.50
2022-12-20T12:50:46.886Z,11.25
2022-12-20T12:53:38.247Z,11.40
2022-12-20T12:56:43.682Z,11.36
2022-12-20T12:59:34.241Z,11.34
2022-12-20T13:02:26.413Z,11.32
2022-12-20T13:05:13.350Z,11.29
2022-12-20T13:08:01.108Z,11.29
2022-12-20T13:10:47.907Z,11.27
2022-12-20T13:13:34.633Z,11.25
2022-12-20T13:17:02.137Z,11.23
2022-12-20T13:19:35.947Z,11.21
2022-12-20T13:22:24.050Z,11.19
2022-12-20T13:25:30.570Z,11.16
2022-12-20T13:28:21.877Z,11.14
2022-12-20T13:31:09.808Z,11.13
2022-12-20T13:34:00.083Z,11.12
2022-12-20T13:36:46.682Z,11.11
2022-12-20T13:39:34.196Z,11.11
2022-12-20T13:42:38.086Z,11.13
2022-12-20T13:45:26.227Z,11.13
2022-12-20T13:48:16.026Z,11.16
2022-12-20T13:51:02.699Z,11.19
2022-12-20T13:53:53.881Z,11.23
2022-12-20T13:56:43.568Z,11.26
2022-12-20T13:59:32.188Z,11.30
2022-12-20T14:02:20.247Z,11.35
2022-12-20T14:05:13.673Z,11.41
2022-12-20T14:08:05.922Z,11.45
2022-12-20T14:10:52.652Z,11.49
2022-12-20T14:13:39.934Z,11.54
2022-12-20T14:16:27.882Z,11.57
2022-12-20T14:19:15.267Z,11.61
2022-12-20T14:22:03.819Z,11.61
2022-12-20T14:24:50.509Z,11.61
2022-12-20T14:27:38.487Z,11.61
2022-12-20T14:30:45.549Z,11.60
2022-12-20T14:33:39.053Z,11.53
2022-12-20T14:36:25.638Z,11.54
2022-12-20T14:39:26.701Z,11.55
2022-12-20T14:42:13.952Z,11.54
2022-12-20T14:45:04.494Z,11.56
2022-12-20T14:47:55.191Z,11.55
2022-12-20T14:50:50.485Z,11.57
2022-12-20T14:53:39.222Z,11.57
2022-12-20T14:56:31.716Z,11.56
2022-12-20T14:59:24.667Z,11.57
2022-12-20T15:02:30.086Z,11.57
2022-12-20T15:05:35.534Z,11.59
2022-12-20T15:08:27.271Z,11.57
2022-12-20T15:11:22.809Z,11.56
2022-12-20T15:14:18.207Z,11.55
2022-12-20T15:17:09.615Z,11.54
2022-12-20T15:19:56.766Z,11.55
2022-12-20T15:22:43.338Z,11.54
2022-12-20T15:25:31.581Z,11.56
2022-12-20T15:28:19.707Z,11.55
2022-12-20T15:31:06.402Z,11.53
2022-12-20T15:33:58.039Z,11.50
2022-12-20T15:36:44.630Z,11.48
2022-12-20T15:39:31.414Z,11.44
2022-12-20T15:42:20.101Z,11.43
2022-12-20T15:45:07.088Z,11.40
2022-12-20T15:47:54.734Z,11.37
2022-12-20T15:50:43.458Z,11.34
2022-12-20T15:53:34.012Z,11.30
2022-12-20T15:56:22.631Z,11.28
2022-12-20T15:59:40.310Z,11.27
2022-12-20T16:02:23.916Z,11.22
2022-12-20T16:05:11.693Z,11.22
2022-12-20T16:07:58.292Z,11.22
2022-12-20T16:10:46.106Z,11.23
2022-12-20T16:13:32.956Z,11.24
2022-12-20T16:16:21.265Z,11.28
2022-12-20T16:19:08.225Z,11.30
2022-12-20T16:21:54.848Z,11.30
2022-12-20T16:24:41.531Z,11.30
2022-12-20T16:27:28.405Z,11.30
2022-12-20T16:30:15.145Z,11.31
2022-12-20T16:33:02.049Z,11.32
2022-12-20T16:35:48.692Z,11.33
2022-12-20T16:38:35.280Z,11.34
2022-12-20T16:41:27.502Z,11.37
2022-12-20T16:44:15.533Z,11.39
2022-12-20T16:47:02.270Z,11.41
2022-12-20T16:49:52.999Z,11.42
2022-12-20T16:52:40.418Z,11.43
2022-12-20T16:55:27.669Z,11.45
2022-12-20T16:58:14.399Z,11.47
2022-12-20T17:01:01.103Z,11.49
2022-12-20T17:03:47.838Z,11.50
2022-12-20T17:06:34.543Z,11.50
2022-12-20T17:12:26.368Z,11.53
2022-12-20T17:15:24.034Z,11.55
2022-12-20T17:18:12.287Z,11.54
2022-12-20T17:21:01.783Z,11.53
2022-12-20T17:23:49.955Z,11.52
2022-12-20T17:26:37.306Z,11.51
2022-12-20T17:29:25.395Z,11.49
2022-12-20T17:32:22.904Z,11.50
2022-12-20T17:35:22.157Z,11.49
2022-12-20T17:38:09.506Z,11.49
2022-12-20T17:40:56.074Z,11.49
2022-12-20T17:43:43.080Z,11.48
2022-12-20T17:46:33.187Z,11.47
2022-12-20T17:49:20.472Z,11.41
2022-12-20T17:52:12.276Z,11.40
2022-12-20T17:54:58.852Z,11.38
2022-12-20T17:57:45.566Z,11.37
2022-12-20T18:00:38.923Z,11.32
2022-12-20T18:06:34.202Z,11.31
2022-12-20T18:09:21.452Z,11.33
2022-12-20T18:12:09.474Z,11.33
2022-12-20T18:14:56.289Z,11.30
2022-12-20T18:17:42.947Z,11.28
2022-12-20T18:20:29.552Z,11.29
2022-12-20T18:23:16.129Z,11.24
2022-12-20T18:26:13.062Z,11.22
2022-12-20T18:29:01.344Z,11.19
2022-12-20T18:31:48.188Z,11.18
2022-12-20T18:34:34.852Z,11.19
2022-12-20T18:37:21.826Z,11.19
2022-12-20T18:40:08.909Z,11.18
2022-12-20T18:42:58.475Z,11.19
2022-12-20T18:45:47.786Z,11.19
2022-12-20T18:48:34.700Z,11.17
2022-12-20T18:51:23.258Z,11.19
2022-12-20T18:54:12.050Z,11.20
2022-12-20T18:56:58.966Z,11.23
2022-12-20T18:59:45.979Z,11.25
2022-12-20T19:02:33.082Z,11.25
2022-12-20T19:05:19.935Z,11.30
2022-12-20T19:08:06.578Z,11.33
2022-12-20T19:10:53.263Z,11.34
2022-12-20T19:13:40.431Z,11.36
2022-12-20T19:16:34.457Z,11.38
2022-12-20T19:19:21.631Z,11.38
2022-12-20T19:22:08.306Z,11.38
2022-12-20T19:24:56.654Z,11.40
2022-12-20T19:27:43.313Z,11.41
2022-12-20T19:30:30.370Z,11.40
2022-12-20T19:33:17.144Z,11.41
2022-12-20T19:36:10.292Z,11.40
2022-12-20T19:39:00.215Z,11.39
2022-12-20T19:42:05.933Z,11.37
2022-12-20T19:44:53.802Z,11.35
2022-12-20T19:47:40.448Z,11.32
2022-12-20T19:50:27.024Z,11.27
2022-12-20T19:53:13.628Z,10.95
2022-12-20T19:56:00.342Z,11.20
2022-12-20T19:58:48.005Z,11.17
2022-12-20T20:01:34.745Z,11.13
2022-12-20T20:04:21.915Z,11.11
2022-12-20T20:07:09.101Z,11.08
2022-12-20T20:09:55.695Z,11.05
2022-12-20T20:12:42.324Z,11.04
2022-12-20T20:15:29.045Z,11.03
2022-12-20T20:18:16.600Z,11.01
2022-12-20T20:21:12.220Z,11.03
2022-12-20T20:23:59.390Z,11.01
2022-12-20T20:26:46.482Z,11.01
2022-12-20T20:29:33.100Z,10.99
2022-12-20T20:32:19.761Z,10.96
2022-12-20T20:35:06.552Z,10.95
2022-12-20T20:37:53.245Z,10.99
2022-12-20T20:40:40.075Z,11.00
2022-12-20T20:43:26.901Z,11.04
2022-12-20T20:46:15.057Z,11.07
2022-12-20T20:49:01.737Z,11.10
2022-12-20T20:51:48.383Z,11.14
2022-12-20T20:54:35.300Z,11.16
2022-12-20T20:57:21.898Z,11.21
2022-12-20T21:00:08.949Z,11.24
2022-12-20T21:02:56.273Z,11.26
2022-12-20T21:08:50.097Z,11.29
2022-12-20T21:11:36.952Z,11.31
2022-12-20T21:14:43.840Z,11.33
2022-12-20T21:17:31.146Z,11.34
2022-12-20T21:20:23.817Z,11.34
2022-12-20T21:23:12.488Z,11.35
2022-12-20T21:25:59.302Z,11.36
2022-12-20T21:28:45.990Z,11.36
2022-12-20T21:31:32.678Z,11.37
2022-12-20T21:34:19.420Z,11.35
2022-12-20T21:37:06.875Z,11.33
2022-12-20T21:39:53.640Z,11.27
2022-12-20T21:42:40.342Z,11.25
2022-12-20T21:45:26.929Z,11.04
2022-12-20T21:48:13.499Z,11.20
2022-12-20T21:51:09.916Z,11.16
2022-12-20T21:53:57.904Z,11.13
2022-12-20T21:56:44.608Z,11.09
2022-12-20T21:59:31.300Z,11.10
2022-12-20T22:02:18.028Z,11.12
2022-12-20T22:05:04.953Z,11.13
2022-12-20T22:07:51.671Z,11.14
2022-12-20T22:10:38.339Z,11.14
2022-12-20T22:13:24.970Z,11.14
2022-12-20T22:16:18.864Z,11.15
2022-12-20T22:19:05.601Z,11.17
2022-12-20T22:21:57.738Z,11.15
2022-12-20T22:24:45.004Z,11.16
2022-12-20T22:27:31.649Z,11.16
2022-12-20T22:30:18.372Z,11.18
2022-12-20T22:33:04.967Z,11.18
2022-12-20T22:35:51.565Z,11.19
2022-12-20T22:38:38.534Z,11.21
2022-12-20T22:41:27.121Z,11.21
2022-12-20T22:44:13.705Z,11.22
2022-12-20T22:47:00.307Z,11.23
2022-12-20T22:49:46.938Z,11.23
2022-12-20T22:52:34.008Z,11.24
2022-12-20T22:55:20.707Z,11.21
2022-12-20T22:58:07.342Z,11.20
2022-12-20T23:01:00.827Z,11.19
2022-12-20T23:03:48.015Z,11.17
2022-12-20T23:06:34.747Z,11.14
2022-12-20T23:09:23.509Z,11.13
2022-12-20T23:12:29.014Z,11.15
2022-12-20T23:15:34.523Z,11.14
2022-12-20T23:18:21.115Z,11.15
2022-12-20T23:21:26.466Z,11.12
2022-12-20T23:24:13.464Z,11.15
2022-12-20T23:27:00.124Z,11.16
2022-12-20T23:29:46.722Z,11.11
2022-12-20T23:32:33.358Z,10.96
2022-12-20T23:35:20.297Z,10.82
2022-12-20T23:38:07.510Z,10.62
2022-12-20T23:40:54.147Z,10.62
2022-12-20T23:43:40.862Z,10.73
2022-12-20T23:46:27.569Z,10.84
2022-12-20T23:49:14.225Z,10.91
2022-12-20T23:52:00.796Z,10.94
2022-12-20T23:54:47.396Z,10.93
2022-12-20T23:57:34.006Z,10.89
